createdAt,value
2023-01-12T00:00:36.567Z,4.61
2023-01-12T00:03:09.797Z,4.62
2023-01-12T00:05:43.039Z,4.62
2023-01-12T00:08:16.540Z,4.68
2023-01-12T00:10:49.598Z,4.63
2023-01-12T00:13:24.800Z,4.63
2023-01-12T00:16:16.156Z,4.58
2023-01-12T00:18:50.063Z,4.59
2023-01-12T00:21:22.941Z,4.58
2023-01-12T00:23:56.067Z,4.57
2023-01-12T00:26:29.209Z,4.58
2023-01-12T00:29:03.817Z,4.57
2023-01-12T00:31:37.066Z,4.52
2023-01-12T00:34:10.547Z,4.56
2023-01-12T00:36:44.252Z,4.56
2023-01-12T00:39:19.166Z,4.53
2023-01-12T00:42:10.161Z,4.53
2023-01-12T00:45:02.424Z,4.55
2023-01-12T00:47:35.726Z,4.51
2023-01-12T00:50:09.827Z,4.48
2023-01-12T00:52:42.930Z,4.47
2023-01-12T00:55:16.291Z,4.47
2023-01-12T00:57:49.421Z,4.45
2023-01-12T01:00:24.141Z,4.49
2023-01-12T01:02:57.379Z,4.46
2023-01-12T01:05:31.997Z,4.51
2023-01-12T01:08:05.770Z,4.47
2023-01-12T01:10:38.697Z,4.49
2023-01-12T01:13:12.281Z,4.43
2023-01-12T01:15:47.490Z,4.42
2023-01-12T01:18:20.846Z,4.41
2023-01-12T01:20:53.973Z,4.46
2023-01-12T01:23:28.872Z,4.46
2023-01-12T01:26:03.510Z,4.48
2023-01-12T01:28:37.308Z,4.43
2023-01-12T01:31:12.288Z,4.44
2023-01-12T01:33:45.589Z,4.40
2023-01-12T01:36:19.592Z,4.43
2023-01-12T01:38:52.940Z,4.40
2023-01-12T01:41:28.059Z,4.40
2023-01-12T01:44:03.873Z,4.38
2023-01-12T01:46:46.833Z,4.42
2023-01-12T01:49:29.226Z,4.41
2023-01-12T01:52:07.271Z,4.44
2023-01-12T01:54:44.738Z,4.42
2023-01-12T01:57:18.119Z,4.44
2023-01-12T01:59:56.112Z,4.44
2023-01-12T02:02:30.785Z,4.43
2023-01-12T02:05:04.720Z,4.40
2023-01-12T02:07:37.663Z,4.44
2023-01-12T02:10:11.962Z,4.42
2023-01-12T02:13:03.680Z,4.40
2023-01-12T02:16:03.658Z,4.42
2023-01-12T02:18:47.552Z,4.42
2023-01-12T02:21:43.117Z,4.39
2023-01-12T02:24:38.655Z,4.40
2023-01-12T02:27:27.494Z,4.42
2023-01-12T02:30:36.422Z,4.40
2023-01-12T02:33:25.045Z,4.38
2023-01-12T02:36:07.546Z,4.40
2023-01-12T02:38:47.782Z,4.43
2023-01-12T02:41:41.841Z,4.40
2023-01-12T02:44:22.384Z,4.36
2023-01-12T02:46:59.907Z,4.43
2023-01-12T02:49:43.117Z,4.44
2023-01-12T02:52:18.932Z,4.32
2023-01-12T02:54:54.975Z,4.41
2023-01-12T02:57:31.005Z,4.43
2023-01-12T03:00:07.754Z,4.43
2023-01-12T03:02:41.016Z,4.43
2023-01-12T03:05:15.626Z,4.39
2023-01-12T03:07:53.232Z,4.38
2023-01-12T03:10:38.682Z,4.40
2023-01-12T03:13:16.796Z,4.40
2023-01-12T03:15:53.485Z,4.38
2023-01-12T03:18:33.178Z,4.34
2023-01-12T03:21:13.347Z,4.39
2023-01-12T03:23:50.158Z,4.40
2023-01-12T03:26:27.931Z,4.36
2023-01-12T03:29:06.618Z,4.38
2023-01-12T03:31:40.074Z,4.41
2023-01-12T03:34:14.001Z,4.40
2023-01-12T03:36:57.897Z,4.38
2023-01-12T03:39:38.987Z,4.41
2023-01-12T03:42:19.083Z,4.38
2023-01-12T03:45:00.912Z,4.36
2023-01-12T03:47:36.695Z,4.40
2023-01-12T03:50:16.652Z,4.37
2023-01-12T03:52:55.120Z,4.32
2023-01-12T03:55:30.761Z,4.35
2023-01-12T03:58:04.110Z,4.32
2023-01-12T04:00:38.055Z,4.31
2023-01-12T04:03:13.149Z,4.29
2023-01-12T04:05:47.362Z,4.17
2023-01-12T04:08:21.882Z,4.29
2023-01-12T04:10:55.000Z,4.28
2023-01-12T04:13:27.765Z,4.28
2023-01-12T04:16:01.492Z,4.27
2023-01-12T04:18:35.184Z,4.28
2023-01-12T04:21:28.291Z,4.26
2023-01-12T04:24:01.854Z,4.27
2023-01-12T04:26:35.086Z,4.30
2023-01-12T04:29:08.245Z,4.31
2023-01-12T04:31:41.321Z,4.39
2023-01-12T04:34:14.612Z,4.32
2023-01-12T04:36:47.816Z,4.31
2023-01-12T04:39:22.378Z,4.31
2023-01-12T04:41:55.723Z,4.36
2023-01-12T04:44:28.902Z,4.34
2023-01-12T04:47:02.439Z,4.34
2023-01-12T04:49:35.803Z,4.29
2023-01-12T04:52:08.859Z,4.36
2023-01-12T04:54:43.355Z,4.35
2023-01-12T04:57:16.608Z,4.29
2023-01-12T04:59:49.795Z,4.29
2023-01-12T05:02:22.937Z,4.26
2023-01-12T05:04:56.157Z,4.26
2023-01-12T05:07:29.406Z,4.26
2023-01-12T05:10:21.650Z,4.25
2023-01-12T05:12:55.391Z,4.31
2023-01-12T05:15:28.946Z,4.23
2023-01-12T05:18:02.005Z,4.26
2023-01-12T05:20:35.601Z,4.23
2023-01-12T05:23:08.764Z,4.26
2023-01-12T05:25:43.299Z,4.25
2023-01-12T05:28:16.621Z,4.22
2023-01-12T05:30:49.826Z,4.22
2023-01-12T05:33:22.949Z,4.26
2023-01-12T05:35:56.152Z,4.23
2023-01-12T05:38:30.455Z,4.22
2023-01-12T05:41:07.315Z,4.23
2023-01-12T05:43:59.916Z,4.24
2023-01-12T05:46:34.343Z,4.23
2023-01-12T05:49:07.801Z,4.24
2023-01-12T05:51:40.912Z,4.22
2023-01-12T05:54:14.163Z,4.25
2023-01-12T05:56:49.926Z,4.24
2023-01-12T05:59:23.166Z,4.24
2023-01-12T06:01:56.263Z,4.28
2023-01-12T06:04:29.538Z,4.31
2023-01-12T06:07:02.764Z,4.26
2023-01-12T06:09:36.012Z,4.28
2023-01-12T06:12:30.653Z,4.30
2023-01-12T06:15:03.770Z,4.31
2023-01-12T06:17:36.953Z,4.36
2023-01-12T06:20:14.951Z,4.32
2023-01-12T06:22:48.132Z,4.34
2023-01-12T06:25:21.347Z,4.35
2023-01-12T06:27:55.921Z,4.37
2023-01-12T06:30:29.054Z,4.38
2023-01-12T06:33:03.582Z,4.40
2023-01-12T06:35:36.843Z,4.40
2023-01-12T06:38:10.131Z,4.43
2023-01-12T06:40:43.395Z,4.43
2023-01-12T06:43:18.132Z,4.45
2023-01-12T06:45:54.479Z,4.46
2023-01-12T06:48:38.641Z,4.46
2023-01-12T06:51:12.669Z,4.47
2023-01-12T06:53:45.959Z,4.48
2023-01-12T06:56:19.176Z,4.51
2023-01-12T06:58:53.834Z,4.57
2023-01-12T07:01:27.835Z,4.58
2023-01-12T07:04:01.088Z,4.61
2023-01-12T07:06:34.573Z,4.63
2023-01-12T07:09:07.771Z,4.66
2023-01-12T07:11:41.033Z,4.64
2023-01-12T07:14:15.965Z,4.67
2023-01-12T07:16:49.449Z,4.68
2023-01-12T07:19:23.635Z,4.70
2023-01-12T07:21:56.807Z,4.71
2023-01-12T07:24:29.952Z,4.75
2023-01-12T07:27:03.070Z,4.74
2023-01-12T07:29:37.881Z,4.79
2023-01-12T07:32:11.015Z,4.62
2023-01-12T07:34:44.956Z,4.80
2023-01-12T07:37:18.276Z,4.82
2023-01-12T07:39:51.489Z,4.89
2023-01-12T07:42:24.645Z,4.87
2023-01-12T07:44:59.100Z,4.90
2023-01-12T07:47:32.631Z,4.96
2023-01-12T07:50:07.039Z,4.95
2023-01-12T07:52:41.475Z,5.03
2023-01-12T07:55:16.646Z,5.07
2023-01-12T07:57:55.660Z,5.08
2023-01-12T08:00:31.859Z,5.10
2023-01-12T08:03:07.071Z,5.11
2023-01-12T08:05:40.844Z,5.14
2023-01-12T08:08:14.294Z,5.14
2023-01-12T08:10:50.217Z,5.19
2023-01-12T08:13:25.700Z,5.29
2023-01-12T08:16:06.366Z,5.33
2023-01-12T08:18:45.349Z,5.31
2023-01-12T08:21:23.210Z,5.34
2023-01-12T08:23:59.544Z,5.29
2023-01-12T08:26:37.276Z,5.32
2023-01-12T08:29:15.203Z,5.25
2023-01-12T08:31:50.346Z,5.29
2023-01-12T08:37:23.198Z,5.10
2023-01-12T08:39:56.631Z,5.24
2023-01-12T08:42:31.943Z,5.28
2023-01-12T08:45:07.984Z,5.30
2023-01-12T08:47:44.509Z,5.27
2023-01-12T08:50:17.794Z,5.31
2023-01-12T08:52:53.588Z,5.21
2023-01-12T08:55:26.783Z,5.25
2023-01-12T08:58:00.379Z,5.23
2023-01-12T09:00:33.464Z,5.31
2023-01-12T09:03:08.519Z,5.27
2023-01-12T09:05:41.669Z,5.26
2023-01-12T09:08:14.787Z,5.28
2023-01-12T09:10:47.939Z,5.31
2023-01-12T09:13:21.713Z,5.31
2023-01-12T09:16:11.230Z,5.27
2023-01-12T09:18:47.470Z,5.27
2023-01-12T09:21:22.772Z,5.23
2023-01-12T09:23:56.506Z,5.25
2023-01-12T09:26:32.032Z,5.24
2023-01-12T09:29:06.076Z,5.26
2023-01-12T09:31:40.059Z,5.27
2023-01-12T09:34:15.180Z,5.31
2023-01-12T09:36:52.247Z,5.35
2023-01-12T09:39:28.395Z,5.39
2023-01-12T09:42:19.475Z,5.44
2023-01-12T09:45:11.312Z,5.49
2023-01-12T09:47:54.947Z,5.40
2023-01-12T09:50:33.642Z,5.58
2023-01-12T09:53:14.030Z,5.58
2023-01-12T09:55:55.188Z,5.58
2023-01-12T09:59:07.886Z,5.63
2023-01-12T10:01:41.218Z,5.69
2023-01-12T10:04:15.338Z,5.74
2023-01-12T10:06:50.130Z,5.77
2023-01-12T10:09:24.550Z,5.73
2023-01-12T10:12:09.183Z,5.76
2023-01-12T10:14:58.847Z,5.82
2023-01-12T10:17:50.581Z,5.87
2023-01-12T10:20:30.815Z,5.87
2023-01-12T10:23:14.559Z,5.90
2023-01-12T10:25:49.470Z,5.89
2023-01-12T10:28:26.763Z,5.84
2023-01-12T10:31:01.686Z,5.88
2023-01-12T10:33:36.157Z,5.93
2023-01-12T10:36:11.184Z,5.98
2023-01-12T10:38:59.558Z,5.99
2023-01-12T10:41:34.597Z,6.04
2023-01-12T10:44:15.739Z,6.17
2023-01-12T10:47:09.725Z,6.17
2023-01-12T10:49:42.988Z,6.21
2023-01-12T10:52:30.578Z,6.24
2023-01-12T10:55:06.522Z,6.23
2023-01-12T10:57:44.952Z,6.28
2023-01-12T11:00:24.174Z,6.30
2023-01-12T11:03:00.403Z,6.39
2023-01-12T11:05:37.569Z,6.42
2023-01-12T11:08:23.699Z,6.40
2023-01-12T11:10:58.317Z,6.36
2023-01-12T11:13:36.605Z,6.43
2023-01-12T11:16:19.114Z,6.47
2023-01-12T11:19:11.849Z,6.49
2023-01-12T11:21:50.244Z,6.48
2023-01-12T11:47:42.013Z,6.53
2023-01-12T11:50:21.674Z,6.48
2023-01-12T11:52:56.842Z,6.50
2023-01-12T11:55:47.975Z,6.47
2023-01-12T11:58:27.864Z,6.50
2023-01-12T12:01:09.255Z,6.48
2023-01-12T12:04:01.698Z,6.52
2023-01-12T12:06:47.039Z,6.55
2023-01-12T12:09:40.269Z,6.58
2023-01-12T12:12:23.807Z,6.58
2023-01-12T12:15:13.589Z,6.68
2023-01-12T12:17:56.513Z,6.67
2023-01-12T12:20:37.507Z,6.75
2023-01-12T12:23:23.276Z,6.77
2023-01-12T12:26:09.765Z,6.77
2023-01-12T12:28:58.299Z,6.77
2023-01-12T12:31:55.317Z,6.76
2023-01-12T12:34:51.617Z,6.76
2023-01-12T12:37:38.911Z,6.76
2023-01-12T12:40:24.920Z,6.78
2023-01-12T12:43:26.926Z,6.68
2023-01-12T12:46:12.183Z,6.70
2023-01-12T12:48:53.815Z,6.71
2023-01-12T12:51:30.076Z,6.76
2023-01-12T12:54:07.792Z,6.75
2023-01-12T12:56:41.979Z,6.77
2023-01-12T12:59:46.512Z,6.79
2023-01-12T13:02:37.938Z,6.79
2023-01-12T13:05:11.648Z,6.78
2023-01-12T13:07:53.156Z,6.82
2023-01-12T13:10:35.427Z,6.60
2023-01-12T13:13:30.192Z,6.77
2023-01-12T13:16:43.776Z,6.74
2023-01-12T13:19:37.491Z,6.72
2023-01-12T13:22:29.059Z,6.72
2023-01-12T13:25:04.395Z,6.73
2023-01-12T13:27:55.741Z,6.74
2023-01-12T13:30:42.496Z,6.58
2023-01-12T13:33:27.559Z,6.67
2023-01-12T13:36:10.837Z,6.69
2023-01-12T13:38:58.880Z,6.69
2023-01-12T13:41:52.153Z,6.65
2023-01-12T13:44:34.793Z,6.65
2023-01-12T13:47:11.399Z,6.65
2023-01-12T13:49:48.160Z,6.62
2023-01-12T13:52:25.999Z,6.59
2023-01-12T13:54:59.618Z,6.58
2023-01-12T13:57:33.191Z,6.58
2023-01-12T14:00:17.209Z,6.57
2023-01-12T14:02:51.168Z,6.56
2023-01-12T14:05:37.955Z,6.58
2023-01-12T14:08:50.143Z,6.57
2023-01-12T14:11:46.187Z,6.58
2023-01-12T14:14:50.662Z,6.60
2023-01-12T14:17:47.108Z,6.56
2023-01-12T14:20:23.152Z,6.54
2023-01-12T14:23:14.372Z,6.52
2023-01-12T14:25:48.771Z,6.50
2023-01-12T14:28:24.436Z,6.49
2023-01-12T14:30:58.373Z,6.48
2023-01-12T14:33:41.083Z,6.44
2023-01-12T14:36:18.321Z,6.48
2023-01-12T14:38:53.444Z,6.47
2023-01-12T14:41:45.631Z,6.44
2023-01-12T14:44:39.531Z,6.42
2023-01-12T14:47:24.597Z,6.25
2023-01-12T14:50:14.867Z,6.38
2023-01-12T14:52:49.903Z,6.37
2023-01-12T14:55:37.926Z,6.36
2023-01-12T14:58:22.405Z,6.31
2023-01-12T15:00:55.983Z,6.30
2023-01-12T15:03:39.356Z,6.30
2023-01-12T15:06:18.422Z,6.30
2023-01-12T15:09:00.396Z,6.30
2023-01-12T15:11:37.229Z,6.28
2023-01-12T15:14:24.979Z,6.20
2023-01-12T15:17:16.610Z,6.23
2023-01-12T15:20:07.287Z,6.23
2023-01-12T15:22:59.410Z,6.23
2023-01-12T15:25:39.053Z,6.23
2023-01-12T15:28:12.313Z,6.21
2023-01-12T15:30:45.978Z,6.18
2023-01-12T15:33:19.536Z,6.16
2023-01-12T15:35:53.196Z,6.14
2023-01-12T15:38:29.122Z,6.13
2023-01-12T15:41:02.557Z,6.07
2023-01-12T15:43:36.287Z,6.17
2023-01-12T15:46:19.354Z,6.12
2023-01-12T15:48:52.923Z,6.12
2023-01-12T15:51:26.432Z,6.12
2023-01-12T15:54:01.441Z,6.10
2023-01-12T15:56:35.316Z,6.10
2023-01-12T15:59:08.735Z,6.10
2023-01-12T16:01:46.702Z,6.07
2023-01-12T16:04:42.092Z,6.10
2023-01-12T16:07:15.781Z,5.98
2023-01-12T16:09:50.964Z,6.08
2023-01-12T16:12:26.149Z,6.07
2023-01-12T16:15:01.063Z,6.06
2023-01-12T16:17:35.556Z,6.05
2023-01-12T16:20:10.454Z,6.05
2023-01-12T16:22:43.948Z,6.04
2023-01-12T16:25:18.916Z,6.04
2023-01-12T16:27:52.219Z,5.96
2023-01-12T16:30:25.458Z,5.97
2023-01-12T16:32:59.133Z,6.02
2023-01-12T16:35:34.288Z,5.99
2023-01-12T16:38:07.531Z,5.96
2023-01-12T16:40:43.422Z,5.95
2023-01-12T16:43:20.959Z,5.98
2023-01-12T16:45:54.529Z,5.95
2023-01-12T16:48:27.960Z,5.95
2023-01-12T16:51:01.849Z,5.92
2023-01-12T16:53:35.099Z,5.89
2023-01-12T16:56:12.164Z,5.90
2023-01-12T16:58:48.424Z,5.90
2023-01-12T17:01:24.290Z,5.93
2023-01-12T17:03:58.267Z,5.92
2023-01-12T17:06:31.996Z,5.93
2023-01-12T17:09:06.467Z,5.93
2023-01-12T17:11:42.809Z,5.92
2023-01-12T17:14:26.965Z,5.92
2023-01-12T17:17:03.310Z,5.92
2023-01-12T17:19:37.932Z,5.86
2023-01-12T17:22:12.519Z,5.91
2023-01-12T17:24:46.293Z,5.93
2023-01-12T17:27:21.343Z,5.91
2023-01-12T17:29:54.835Z,5.90
2023-01-12T17:32:28.278Z,5.89
2023-01-12T17:35:04.417Z,5.90
2023-01-12T17:37:38.033Z,5.87
2023-01-12T17:40:12.592Z,5.89
2023-01-12T17:43:02.491Z,5.90
2023-01-12T17:45:42.691Z,5.87
2023-01-12T17:48:19.265Z,5.86
2023-01-12T17:50:53.163Z,5.78
2023-01-12T17:53:26.351Z,5.80
2023-01-12T17:56:03.926Z,5.82
2023-01-12T17:58:38.700Z,5.83
2023-01-12T18:01:12.915Z,5.84
2023-01-12T18:03:46.689Z,5.83
2023-01-12T18:06:26.510Z,5.83
2023-01-12T18:09:00.951Z,5.81
2023-01-12T18:11:34.625Z,5.85
2023-01-12T18:14:09.654Z,5.78
2023-01-12T18:16:43.131Z,5.79
2023-01-12T18:19:16.806Z,5.75
2023-01-12T18:21:51.370Z,5.77
2023-01-12T18:24:24.915Z,5.71
2023-01-12T18:26:59.413Z,5.75
2023-01-12T18:29:34.734Z,5.72
2023-01-12T18:32:09.255Z,5.69
2023-01-12T18:34:43.847Z,5.67
2023-01-12T18:37:18.087Z,5.69
2023-01-12T18:39:51.505Z,5.73
2023-01-12T18:42:42.489Z,5.77
2023-01-12T18:45:18.603Z,5.74
2023-01-12T18:48:10.267Z,5.73
2023-01-12T18:51:03.010Z,5.72
2023-01-12T18:53:36.804Z,5.75
2023-01-12T18:56:11.427Z,5.78
2023-01-12T18:58:45.947Z,5.68
2023-01-12T19:01:22.064Z,5.64
2023-01-12T19:03:55.960Z,5.68
2023-01-12T19:06:42.893Z,5.70
2023-01-12T19:09:34.609Z,5.73
2023-01-12T19:12:08.880Z,5.71
2023-01-12T19:15:00.811Z,5.67
2023-01-12T19:17:36.935Z,5.68
2023-01-12T19:20:15.754Z,5.70
2023-01-12T19:23:09.711Z,5.70
2023-01-12T19:26:09.628Z,5.67
2023-01-12T19:28:44.384Z,5.70
2023-01-12T19:31:17.838Z,5.59
2023-01-12T19:33:53.429Z,5.64
2023-01-12T19:36:28.729Z,5.60
2023-01-12T19:39:07.494Z,5.61
2023-01-12T19:41:59.888Z,5.61
2023-01-12T19:44:34.904Z,5.61
2023-01-12T19:47:10.113Z,5.60
2023-01-12T19:49:45.221Z,5.62
2023-01-12T19:52:20.247Z,5.61
2023-01-12T19:54:54.211Z,5.63
2023-01-12T19:57:27.918Z,5.64
2023-01-12T20:00:02.763Z,5.48
2023-01-12T20:02:36.766Z,5.53
2023-01-12T20:05:13.845Z,5.62
2023-01-12T20:07:47.687Z,5.60
2023-01-12T20:10:25.228Z,5.59
2023-01-12T20:12:59.476Z,5.50
2023-01-12T20:15:33.850Z,5.47
2023-01-12T20:18:09.011Z,5.49
2023-01-12T20:20:45.459Z,5.50
2023-01-12T20:23:21.648Z,5.53
2023-01-12T20:25:56.544Z,5.50
2023-01-12T20:28:31.077Z,5.47
2023-01-12T20:31:10.166Z,5.48
2023-01-12T20:33:44.057Z,5.47
2023-01-12T20:36:19.728Z,5.39
2023-01-12T20:38:53.677Z,5.41
2023-01-12T20:41:27.224Z,5.48
2023-01-12T20:44:00.664Z,5.47
2023-01-12T20:46:34.667Z,5.40
2023-01-12T20:49:08.141Z,5.36
2023-01-12T20:51:43.235Z,5.32
2023-01-12T20:54:20.619Z,5.39
2023-01-12T20:56:53.879Z,5.37
2023-01-12T20:59:27.341Z,5.39
2023-01-12T21:02:01.790Z,5.41
2023-01-12T21:04:36.533Z,5.28
2023-01-12T21:07:12.943Z,5.23
2023-01-12T21:09:46.365Z,5.31
2023-01-12T21:12:24.707Z,5.21
2023-01-12T21:15:00.206Z,5.24
2023-01-12T21:17:36.066Z,5.22
2023-01-12T21:20:11.424Z,5.22
2023-01-12T21:22:46.273Z,5.20
2023-01-12T21:25:20.117Z,5.22
2023-01-12T21:27:53.279Z,5.22
2023-01-12T21:30:26.682Z,5.20
2023-01-12T21:33:00.739Z,5.20
2023-01-12T21:35:34.444Z,5.25
2023-01-12T21:38:09.033Z,5.27
2023-01-12T21:40:42.467Z,5.27
2023-01-12T21:43:18.026Z,5.29
2023-01-12T21:45:53.221Z,5.23
2023-01-12T21:48:26.711Z,5.22
2023-01-12T21:51:04.108Z,5.19
2023-01-12T21:53:38.729Z,5.20
2023-01-12T21:56:13.319Z,5.23
2023-01-12T21:58:46.470Z,5.14
2023-01-12T22:01:20.172Z,5.16
2023-01-12T22:03:56.911Z,5.22
2023-01-12T22:06:31.248Z,5.18
2023-01-12T22:09:06.019Z,5.12
2023-01-12T22:11:39.930Z,5.09
2023-01-12T22:14:13.722Z,5.17
2023-01-12T22:16:47.771Z,5.09
2023-01-12T22:19:21.375Z,5.13
2023-01-12T22:21:54.830Z,5.17
2023-01-12T22:24:29.393Z,5.08
2023-01-12T22:27:03.532Z,5.11
2023-01-12T22:29:36.591Z,4.96
2023-01-12T22:32:09.866Z,5.08
2023-01-12T22:34:43.383Z,5.05
2023-01-12T22:37:16.637Z,5.04
2023-01-12T22:39:51.233Z,5.07
2023-01-12T22:42:46.016Z,4.90
2023-01-12T22:45:19.518Z,5.06
2023-01-12T22:47:53.805Z,5.06
2023-01-12T22:50:26.974Z,5.10
2023-01-12T22:53:00.561Z,5.09
2023-01-12T22:55:35.170Z,5.06
2023-01-12T22:58:09.326Z,5.05
2023-01-12T23:00:43.964Z,4.97
2023-01-12T23:03:17.506Z,4.98
2023-01-12T23:05:55.995Z,5.03
2023-01-12T23:08:29.646Z,4.98
2023-01-12T23:11:06.422Z,5.08
2023-01-12T23:13:40.966Z,5.06
2023-01-12T23:16:16.228Z,5.11
2023-01-12T23:18:50.399Z,5.07
2023-01-12T23:21:24.964Z,5.04
2023-01-12T23:23:59.892Z,5.08
2023-01-12T23:26:34.823Z,5.05
2023-01-12T23:29:08.455Z,5.03
2023-01-12T23:31:41.810Z,5.04
2023-01-12T23:34:15.352Z,5.07
2023-01-12T23:36:48.634Z,5.09
2023-01-12T23:39:22.092Z,5.08
2023-01-12T23:41:57.115Z,5.04
2023-01-12T23:44:30.541Z,5.02
2023-01-12T23:47:06.483Z,5.04
2023-01-12T23:49:39.646Z,4.98
2023-01-12T23:52:12.887Z,5.05
2023-01-12T23:54:46.483Z,5.02
2023-01-12T23:57:22.357Z,4.98
2023-01-12T23:59:56.251Z,4.81
